sensor_id;sensor_type;location;lat;lon;timestamp;temperature;humidity
54796;DHT22;40693;43.884;20.340;2022-08-21T00:01:25;589.20;2432.00
54796;DHT22;40693;43.884;20.340;2022-08-21T00:03:52;589.20;2432.00
54796;DHT22;40693;43.884;20.340;2022-08-21T00:06:18;589.20;2432.00
54796;DHT22;40693;43.884;20.340;2022-08-21T00:08:44;589.20;2432.00
54796;DHT22;40693;43.884;20.340;2022-08-21T00:11:10;589.20;2432.00
54796;DHT22;40693;43.884;20.340;2022-08-21T00:13:37;589.10;2432.00
54796;DHT22;40693;43.884;20.340;2022-08-21T00:16:04;589.00;2432.00
54796;DHT22;40693;43.884;20.340;2022-08-21T00:18:30;589.00;2432.00
54796;DHT22;40693;43.884;20.340;2022-08-21T00:20:56;589.00;2432.00
54796;DHT22;40693;43.884;20.340;2022-08-21T00:23:21;589.00;2432.00
54796;DHT22;40693;43.884;20.340;2022-08-21T00:25:47;589.00;2432.00
54796;DHT22;40693;43.884;20.340;2022-08-21T00:28:14;588.90;2432.00
54796;DHT22;40693;43.884;20.340;2022-08-21T00:30:41;588.80;2432.00
54796;DHT22;40693;43.884;20.340;2022-08-21T00:33:09;588.80;2432.00
54796;DHT22;40693;43.884;20.340;2022-08-21T00:35:37;588.80;2432.00
54796;DHT22;40693;43.884;20.340;2022-08-21T00:38:04;588.80;2432.00
54796;DHT22;40693;43.884;20.340;2022-08-21T00:40:37;588.80;2432.00
54796;DHT22;40693;43.884;20.340;2022-08-21T00:43:04;588.80;2432.00
54796;DHT22;40693;43.884;20.340;2022-08-21T00:45:32;588.80;2432.00
54796;DHT22;40693;43.884;20.340;2022-08-21T00:47:59;588.90;2432.00
54796;DHT22;40693;43.884;20.340;2022-08-21T00:50:29;588.90;2432.00
54796;DHT22;40693;43.884;20.340;2022-08-21T00:52:57;589.00;2432.00
54796;DHT22;40693;43.884;20.340;2022-08-21T00:55:24;589.00;2432.00
54796;DHT22;40693;43.884;20.340;2022-08-21T00:57:52;589.00;2432.00
54796;DHT22;40693;43.884;20.340;2022-08-21T01:00:26;589.10;2432.00
54796;DHT22;40693;43.884;20.340;2022-08-21T01:02:57;589.20;2432.00
54796;DHT22;40693;43.884;20.340;2022-08-21T01:05:24;589.20;2432.00
54796;DHT22;40693;43.884;20.340;2022-08-21T01:07:50;589.20;2432.00
54796;DHT22;40693;43.884;20.340;2022-08-21T01:10:16;589.20;2432.00
54796;DHT22;40693;43.884;20.340;2022-08-21T01:12:43;589.20;2432.00
54796;DHT22;40693;43.884;20.340;2022-08-21T01:15:09;589.20;2432.00
54796;DHT22;40693;43.884;20.340;2022-08-21T01:17:37;589.20;2432.00
54796;DHT22;40693;43.884;20.340;2022-08-21T01:20:06;589.20;2432.00
54796;DHT22;40693;43.884;20.340;2022-08-21T01:22:32;589.30;2432.00
54796;DHT22;40693;43.884;20.340;2022-08-21T01:24:58;589.30;2432.00
54796;DHT22;40693;43.884;20.340;2022-08-21T01:27:24;589.20;2432.00
54796;DHT22;40693;43.884;20.340;2022-08-21T01:29:57;589.30;2432.00
54796;DHT22;40693;43.884;20.340;2022-08-21T01:32:24;589.40;2432.00
54796;DHT22;40693;43.884;20.340;2022-08-21T01:34:50;589.40;2432.00
54796;DHT22;40693;43.884;20.340;2022-08-21T01:37:18;589.50;2432.00
54796;DHT22;40693;43.884;20.340;2022-08-21T01:39:45;589.50;2432.00
54796;DHT22;40693;43.884;20.340;2022-08-21T01:42:11;589.50;2432.00
54796;DHT22;40693;43.884;20.340;2022-08-21T01:44:37;589.50;2432.00
54796;DHT22;40693;43.884;20.340;2022-08-21T01:47:08;589.50;2432.00
54796;DHT22;40693;43.884;20.340;2022-08-21T01:49:34;589.50;2432.00
54796;DHT22;40693;43.884;20.340;2022-08-21T01:52:00;589.50;2432.00
54796;DHT22;40693;43.884;20.340;2022-08-21T01:54:27;589.50;2432.00
54796;DHT22;40693;43.884;20.340;2022-08-21T01:56:53;589.60;2432.00
54796;DHT22;40693;43.884;20.340;2022-08-21T01:59:22;589.60;2432.00
54796;DHT22;40693;43.884;20.340;2022-08-21T02:01:48;589.60;2432.00
54796;DHT22;40693;43.884;20.340;2022-08-21T02:04:15;589.60;2432.00
54796;DHT22;40693;43.884;20.340;2022-08-21T02:06:41;589.60;2432.00
54796;DHT22;40693;43.884;20.340;2022-08-21T02:09:09;589.60;2432.00
54796;DHT22;40693;43.884;20.340;2022-08-21T02:11:36;589.60;2432.00
54796;DHT22;40693;43.884;20.340;2022-08-21T02:14:02;589.60;2432.00
54796;DHT22;40693;43.884;20.340;2022-08-21T02:16:27;589.60;2432.00
54796;DHT22;40693;43.884;20.340;2022-08-21T02:18:53;589.60;2432.00
54796;DHT22;40693;43.884;20.340;2022-08-21T02:21:19;589.60;2432.00
54796;DHT22;40693;43.884;20.340;2022-08-21T02:23:45;589.50;2432.00
54796;DHT22;40693;43.884;20.340;2022-08-21T02:26:11;589.50;2432.00
54796;DHT22;40693;43.884;20.340;2022-08-21T02:28:38;589.50;2432.00
54796;DHT22;40693;43.884;20.340;2022-08-21T02:31:05;589.40;2432.00
54796;DHT22;40693;43.884;20.340;2022-08-21T02:33:31;589.40;2432.00
54796;DHT22;40693;43.884;20.340;2022-08-21T02:35:57;589.30;2432.00
54796;DHT22;40693;43.884;20.340;2022-08-21T02:38:27;589.20;2432.00
54796;DHT22;40693;43.884;20.340;2022-08-21T02:40:54;589.20;2432.00
54796;DHT22;40693;43.884;20.340;2022-08-21T02:43:21;589.10;2432.00
54796;DHT22;40693;43.884;20.340;2022-08-21T02:45:47;589.00;2432.00
54796;DHT22;40693;43.884;20.340;2022-08-21T02:48:20;588.90;2432.00
54796;DHT22;40693;43.884;20.340;2022-08-21T02:50:48;588.90;2432.00
54796;DHT22;40693;43.884;20.340;2022-08-21T02:53:16;588.90;2432.00
54796;DHT22;40693;43.884;20.340;2022-08-21T02:55:46;588.90;2432.00
54796;DHT22;40693;43.884;20.340;2022-08-21T02:58:14;588.80;2432.00
54796;DHT22;40693;43.884;20.340;2022-08-21T03:00:41;588.80;2432.00
54796;DHT22;40693;43.884;20.340;2022-08-21T03:03:06;589.10;2432.00
54796;DHT22;40693;43.884;20.340;2022-08-21T03:05:34;588.90;2432.00
54796;DHT22;40693;43.884;20.340;2022-08-21T03:08:01;588.90;2432.00
54796;DHT22;40693;43.884;20.340;2022-08-21T03:10:28;588.90;2432.00
54796;DHT22;40693;43.884;20.340;2022-08-21T03:12:54;588.90;2432.00
54796;DHT22;40693;43.884;20.340;2022-08-21T03:15:22;588.90;2432.00
54796;DHT22;40693;43.884;20.340;2022-08-21T03:17:49;588.90;2432.00
54796;DHT22;40693;43.884;20.340;2022-08-21T03:20:18;589.00;2432.00
54796;DHT22;40693;43.884;20.340;2022-08-21T03:22:45;589.00;2432.00
54796;DHT22;40693;43.884;20.340;2022-08-21T03:25:11;589.00;2432.00
54796;DHT22;40693;43.884;20.340;2022-08-21T03:27:37;589.10;2432.00
54796;DHT22;40693;43.884;20.340;2022-08-21T03:30:05;589.20;2432.00
54796;DHT22;40693;43.884;20.340;2022-08-21T03:32:31;589.20;2432.00
54796;DHT22;40693;43.884;20.340;2022-08-21T03:34:58;589.20;2432.00
54796;DHT22;40693;43.884;20.340;2022-08-21T03:37:24;589.30;2432.00
54796;DHT22;40693;43.884;20.340;2022-08-21T03:39:50;589.20;2432.00
54796;DHT22;40693;43.884;20.340;2022-08-21T03:42:16;589.30;2432.00
54796;DHT22;40693;43.884;20.340;2022-08-21T03:44:42;589.30;2432.00
54796;DHT22;40693;43.884;20.340;2022-08-21T03:47:08;589.30;2432.00
54796;DHT22;40693;43.884;20.340;2022-08-21T03:49:35;589.30;2432.00
54796;DHT22;40693;43.884;20.340;2022-08-21T03:52:01;589.30;2432.00
54796;DHT22;40693;43.884;20.340;2022-08-21T03:54:27;589.30;2432.00
54796;DHT22;40693;43.884;20.340;2022-08-21T03:56:53;589.30;2432.00
54796;DHT22;40693;43.884;20.340;2022-08-21T03:59:18;589.40;2432.00
54796;DHT22;40693;43.884;20.340;2022-08-21T04:01:58;589.40;2432.00
54796;DHT22;40693;43.884;20.340;2022-08-21T04:04:25;589.30;2432.00
54796;DHT22;40693;43.884;20.340;2022-08-21T04:06:51;589.30;2432.00
54796;DHT22;40693;43.884;20.340;2022-08-21T04:09:18;589.30;2432.00
54796;DHT22;40693;43.884;20.340;2022-08-21T04:11:44;589.30;2432.00
54796;DHT22;40693;43.884;20.340;2022-08-21T04:14:11;589.40;2432.00
54796;DHT22;40693;43.884;20.340;2022-08-21T04:16:37;589.30;2432.00
54796;DHT22;40693;43.884;20.340;2022-08-21T04:19:03;589.30;2432.00
54796;DHT22;40693;43.884;20.340;2022-08-21T04:21:30;589.30;2432.00
54796;DHT22;40693;43.884;20.340;2022-08-21T04:23:56;589.30;2432.00
54796;DHT22;40693;43.884;20.340;2022-08-21T04:26:22;589.30;2432.00
54796;DHT22;40693;43.884;20.340;2022-08-21T04:28:47;589.30;2432.00
54796;DHT22;40693;43.884;20.340;2022-08-21T04:31:13;589.30;2432.00
54796;DHT22;40693;43.884;20.340;2022-08-21T04:33:39;589.30;2432.00
54796;DHT22;40693;43.884;20.340;2022-08-21T04:36:05;589.30;2432.00
54796;DHT22;40693;43.884;20.340;2022-08-21T04:38:32;589.30;2432.00
54796;DHT22;40693;43.884;20.340;2022-08-21T04:40:58;589.30;2432.00
54796;DHT22;40693;43.884;20.340;2022-08-21T04:43:25;589.30;2432.00
54796;DHT22;40693;43.884;20.340;2022-08-21T04:45:52;589.30;2432.00
54796;DHT22;40693;43.884;20.340;2022-08-21T04:48:20;589.30;2432.00
54796;DHT22;40693;43.884;20.340;2022-08-21T04:50:53;589.30;2432.00
54796;DHT22;40693;43.884;20.340;2022-08-21T04:55:57;589.30;2432.00
54796;DHT22;40693;43.884;20.340;2022-08-21T04:58:26;589.30;2432.00
54796;DHT22;40693;43.884;20.340;2022-08-21T05:00:54;589.30;2432.00
54796;DHT22;40693;43.884;20.340;2022-08-21T05:03:21;589.30;2432.00
54796;DHT22;40693;43.884;20.340;2022-08-21T05:05:48;589.30;2432.00
54796;DHT22;40693;43.884;20.340;2022-08-21T05:08:18;589.30;2432.00
54796;DHT22;40693;43.884;20.340;2022-08-21T05:10:45;589.30;2432.00
54796;DHT22;40693;43.884;20.340;2022-08-21T05:13:12;589.30;2432.00
54796;DHT22;40693;43.884;20.340;2022-08-21T05:15:39;589.30;2432.00
54796;DHT22;40693;43.884;20.340;2022-08-21T05:18:05;589.30;2432.00
54796;DHT22;40693;43.884;20.340;2022-08-21T05:20:32;589.30;2432.00
54796;DHT22;40693;43.884;20.340;2022-08-21T05:23:06;589.40;2432.00
54796;DHT22;40693;43.884;20.340;2022-08-21T05:25:33;589.40;2432.00
54796;DHT22;40693;43.884;20.340;2022-08-21T05:27:59;589.50;2432.00
54796;DHT22;40693;43.884;20.340;2022-08-21T05:30:25;589.50;2432.00
54796;DHT22;40693;43.884;20.340;2022-08-21T05:32:56;589.50;2432.00
54796;DHT22;40693;43.884;20.340;2022-08-21T05:35:22;589.50;2432.00
54796;DHT22;40693;43.884;20.340;2022-08-21T05:37:48;589.50;2432.00
54796;DHT22;40693;43.884;20.340;2022-08-21T05:40:14;589.50;2432.00
54796;DHT22;40693;43.884;20.340;2022-08-21T05:42:40;589.50;2432.00
54796;DHT22;40693;43.884;20.340;2022-08-21T05:45:06;589.50;2432.00
54796;DHT22;40693;43.884;20.340;2022-08-21T05:47:32;589.50;2432.00
54796;DHT22;40693;43.884;20.340;2022-08-21T05:49:58;589.50;2432.00
54796;DHT22;40693;43.884;20.340;2022-08-21T05:52:23;589.50;2432.00
54796;DHT22;40693;43.884;20.340;2022-08-21T05:54:49;589.50;2432.00
54796;DHT22;40693;43.884;20.340;2022-08-21T05:57:15;589.40;2432.00
54796;DHT22;40693;43.884;20.340;2022-08-21T05:59:41;589.50;2432.00
54796;DHT22;40693;43.884;20.340;2022-08-21T06:02:07;589.30;2432.00
54796;DHT22;40693;43.884;20.340;2022-08-21T06:04:37;589.50;2432.00
54796;DHT22;40693;43.884;20.340;2022-08-21T06:07:04;589.50;2432.00
54796;DHT22;40693;43.884;20.340;2022-08-21T06:09:30;589.50;2432.00
54796;DHT22;40693;43.884;20.340;2022-08-21T06:11:55;589.50;2432.00
54796;DHT22;40693;43.884;20.340;2022-08-21T06:14:21;589.50;2432.00
54796;DHT22;40693;43.884;20.340;2022-08-21T06:16:48;589.60;2432.00
54796;DHT22;40693;43.884;20.340;2022-08-21T06:19:14;589.60;2432.00
54796;DHT22;40693;43.884;20.340;2022-08-21T06:21:40;589.60;2432.00
54796;DHT22;40693;43.884;20.340;2022-08-21T06:24:06;589.60;2432.00
54796;DHT22;40693;43.884;20.340;2022-08-21T06:26:32;589.70;2432.00
54796;DHT22;40693;43.884;20.340;2022-08-21T06:28:58;589.70;2432.00
54796;DHT22;40693;43.884;20.340;2022-08-21T06:31:27;589.70;2432.00
54796;DHT22;40693;43.884;20.340;2022-08-21T06:33:54;614.40;2432.00
54796;DHT22;40693;43.884;20.340;2022-08-21T06:36:20;614.50;2432.00
54796;DHT22;40693;43.884;20.340;2022-08-21T06:38:46;614.50;2432.00
54796;DHT22;40693;43.884;20.340;2022-08-21T06:41:13;614.60;2432.00
54796;DHT22;40693;43.884;20.340;2022-08-21T06:43:39;614.60;2432.00
54796;DHT22;40693;43.884;20.340;2022-08-21T06:46:04;614.60;2432.00
54796;DHT22;40693;43.884;20.340;2022-08-21T06:48:30;614.70;2432.00
54796;DHT22;40693;43.884;20.340;2022-08-21T06:51:00;614.80;2432.00
54796;DHT22;40693;43.884;20.340;2022-08-21T06:53:26;614.80;2432.00
54796;DHT22;40693;43.884;20.340;2022-08-21T06:55:52;614.80;2432.00
54796;DHT22;40693;43.884;20.340;2022-08-21T06:58:18;614.90;2432.00
54796;DHT22;40693;43.884;20.340;2022-08-21T07:00:47;615.00;2432.00
54796;DHT22;40693;43.884;20.340;2022-08-21T07:03:30;615.10;2432.00
54796;DHT22;40693;43.884;20.340;2022-08-21T07:05:56;615.10;2432.00
54796;DHT22;40693;43.884;20.340;2022-08-21T07:08:25;615.10;2432.00
54796;DHT22;40693;43.884;20.340;2022-08-21T07:10:52;615.20;2432.00
54796;DHT22;40693;43.884;20.340;2022-08-21T07:13:19;615.30;2432.00
54796;DHT22;40693;43.884;20.340;2022-08-21T07:15:45;615.30;2432.00
54796;DHT22;40693;43.884;20.340;2022-08-21T07:18:11;640.00;2432.00
54796;DHT22;40693;43.884;20.340;2022-08-21T07:20:37;640.10;2432.00
54796;DHT22;40693;43.884;20.340;2022-08-21T07:23:06;640.20;2432.00
54796;DHT22;40693;43.884;20.340;2022-08-21T07:25:32;640.40;2432.00
54796;DHT22;40693;43.884;20.340;2022-08-21T07:27:58;640.50;2432.00
54796;DHT22;40693;43.884;20.340;2022-08-21T07:30:24;640.70;2432.00
54796;DHT22;40693;43.884;20.340;2022-08-21T07:32:50;640.90;2432.00
54796;DHT22;40693;43.884;20.340;2022-08-21T07:35:18;640.90;2432.00
54796;DHT22;40693;43.884;20.340;2022-08-21T07:37:44;665.60;2432.00
54796;DHT22;40693;43.884;20.340;2022-08-21T07:40:10;665.60;2432.00
54796;DHT22;40693;43.884;20.340;2022-08-21T07:42:40;640.70;2432.00
54796;DHT22;40693;43.884;20.340;2022-08-21T07:45:07;665.60;2432.00
54796;DHT22;40693;43.884;20.340;2022-08-21T07:47:33;665.80;2432.00
54796;DHT22;40693;43.884;20.340;2022-08-21T07:49:59;640.80;2432.00
54796;DHT22;40693;43.884;20.340;2022-08-21T07:52:24;640.70;2432.00
54796;DHT22;40693;43.884;20.340;2022-08-21T07:54:50;640.70;2432.00
54796;DHT22;40693;43.884;20.340;2022-08-21T07:57:16;640.70;2432.00
54796;DHT22;40693;43.884;20.340;2022-08-21T07:59:41;640.70;2432.00
54796;DHT22;40693;43.884;20.340;2022-08-21T08:02:07;640.60;2432.00
54796;DHT22;40693;43.884;20.340;2022-08-21T08:04:33;640.80;2432.00
54796;DHT22;40693;43.884;20.340;2022-08-21T08:06:59;640.90;2432.00
54796;DHT22;40693;43.884;20.340;2022-08-21T08:09:24;640.90;2432.00
54796;DHT22;40693;43.884;20.340;2022-08-21T08:11:50;665.60;2432.00
54796;DHT22;40693;43.884;20.340;2022-08-21T08:14:16;665.60;2432.00
54796;DHT22;40693;43.884;20.340;2022-08-21T08:16:42;640.90;2432.00
54796;DHT22;40693;43.884;20.340;2022-08-21T08:19:08;665.60;2432.00
54796;DHT22;40693;43.884;20.340;2022-08-21T08:21:34;665.60;2432.00
54796;DHT22;40693;43.884;20.340;2022-08-21T08:24:02;665.60;2432.00
54796;DHT22;40693;43.884;20.340;2022-08-21T08:26:27;640.90;2432.00
54796;DHT22;40693;43.884;20.340;2022-08-21T08:28:53;640.80;2432.00
54796;DHT22;40693;43.884;20.340;2022-08-21T08:31:19;640.70;2432.00
54796;DHT22;40693;43.884;20.340;2022-08-21T08:33:45;640.80;2432.00
54796;DHT22;40693;43.884;20.340;2022-08-21T08:36:15;640.90;2432.00
54796;DHT22;40693;43.884;20.340;2022-08-21T08:38:43;640.90;2432.00
54796;DHT22;40693;43.884;20.340;2022-08-21T08:41:19;640.90;2432.00
54796;DHT22;40693;43.884;20.340;2022-08-21T08:43:54;640.60;2432.00
54796;DHT22;40693;43.884;20.340;2022-08-21T08:46:36;640.60;2432.00
54796;DHT22;40693;43.884;20.340;2022-08-21T08:49:12;640.50;2432.00
54796;DHT22;40693;43.884;20.340;2022-08-21T08:54:47;640.50;2432.00
54796;DHT22;40693;43.884;20.340;2022-08-21T08:57:17;640.50;2432.00
54796;DHT22;40693;43.884;20.340;2022-08-21T08:59:50;640.50;2432.00
54796;DHT22;40693;43.884;20.340;2022-08-21T09:02:18;640.50;2432.00
54796;DHT22;40693;43.884;20.340;2022-08-21T09:04:46;640.50;2432.00
54796;DHT22;40693;43.884;20.340;2022-08-21T09:15:30;665.60;2432.00
54796;DHT22;40693;43.884;20.340;2022-08-21T09:20:41;665.80;2432.00
54796;DHT22;40693;43.884;20.340;2022-08-21T09:26:25;665.70;2432.00
54796;DHT22;40693;43.884;20.340;2022-08-21T09:28:54;665.70;2432.00
54796;DHT22;40693;43.884;20.340;2022-08-21T09:31:31;665.70;2432.00
54796;DHT22;40693;43.884;20.340;2022-08-21T09:33:59;665.60;2432.00
54796;DHT22;40693;43.884;20.340;2022-08-21T09:36:39;640.90;2432.00
54796;DHT22;40693;43.884;20.340;2022-08-21T09:39:06;640.80;2432.00
54796;DHT22;40693;43.884;20.340;2022-08-21T09:41:34;640.60;2432.00
54796;DHT22;40693;43.884;20.340;2022-08-21T09:44:02;640.60;2432.00
54796;DHT22;40693;43.884;20.340;2022-08-21T09:46:28;640.50;2432.00
54796;DHT22;40693;43.884;20.340;2022-08-21T09:48:57;640.50;2432.00
54796;DHT22;40693;43.884;20.340;2022-08-21T09:51:27;640.30;2432.00
54796;DHT22;40693;43.884;20.340;2022-08-21T09:56:52;640.20;2432.00
54796;DHT22;40693;43.884;20.340;2022-08-21T09:59:38;640.10;2432.00
54796;DHT22;40693;43.884;20.340;2022-08-21T10:02:30;615.30;2432.00
54796;DHT22;40693;43.884;20.340;2022-08-21T10:05:17;615.30;2432.00
54796;DHT22;40693;43.884;20.340;2022-08-21T10:07:43;615.30;2432.00
54796;DHT22;40693;43.884;20.340;2022-08-21T10:10:17;615.20;2432.00
54796;DHT22;40693;43.884;20.340;2022-08-21T10:18:45;615.10;2432.00
54796;DHT22;40693;43.884;20.340;2022-08-21T10:24:12;614.80;2432.00
54796;DHT22;40693;43.884;20.340;2022-08-21T10:29:50;614.80;2432.00
54796;DHT22;40693;43.884;20.340;2022-08-21T10:35:14;614.80;2432.00
54796;DHT22;40693;43.884;20.340;2022-08-21T10:40:48;614.80;2432.00
54796;DHT22;40693;43.884;20.340;2022-08-21T10:43:38;614.80;2432.00
54796;DHT22;40693;43.884;20.340;2022-08-21T10:54:31;615.30;2432.00
54796;DHT22;40693;43.884;20.340;2022-08-21T10:57:07;615.30;2432.00
54796;DHT22;40693;43.884;20.340;2022-08-21T11:08:02;640.50;2432.00
54796;DHT22;40693;43.884;20.340;2022-08-21T11:10:55;640.60;2432.00
54796;DHT22;40693;43.884;20.340;2022-08-21T11:13:27;640.70;2432.00
54796;DHT22;40693;43.884;20.340;2022-08-21T11:16:07;640.80;2432.00
54796;DHT22;40693;43.884;20.340;2022-08-21T11:18:41;640.80;2432.00
54796;DHT22;40693;43.884;20.340;2022-08-21T11:24:03;640.80;2432.00
54796;DHT22;40693;43.884;20.340;2022-08-21T11:26:32;640.90;2432.00
54796;DHT22;40693;43.884;20.340;2022-08-21T11:29:17;640.90;2432.00
54796;DHT22;40693;43.884;20.340;2022-08-21T11:37:40;640.90;2432.00
54796;DHT22;40693;43.884;20.340;2022-08-21T11:43:09;665.60;2432.00
54796;DHT22;40693;43.884;20.340;2022-08-21T11:45:55;665.60;2432.00
54796;DHT22;40693;43.884;20.340;2022-08-21T11:51:27;640.90;2432.00
54796;DHT22;40693;43.884;20.340;2022-08-21T11:56:51;640.90;2432.00
54796;DHT22;40693;43.884;20.340;2022-08-21T11:59:29;665.60;2432.00
54796;DHT22;40693;43.884;20.340;2022-08-21T12:01:58;665.60;2432.00
54796;DHT22;40693;43.884;20.340;2022-08-21T12:04:44;640.70;2432.00
54796;DHT22;40693;43.884;20.340;2022-08-21T12:07:13;640.70;2432.00
54796;DHT22;40693;43.884;20.340;2022-08-21T12:09:39;640.60;2432.00
54796;DHT22;40693;43.884;20.340;2022-08-21T12:12:11;640.60;2432.00
54796;DHT22;40693;43.884;20.340;2022-08-21T12:14:43;640.50;2432.00
54796;DHT22;40693;43.884;20.340;2022-08-21T12:17:24;640.30;2432.00
54796;DHT22;40693;43.884;20.340;2022-08-21T12:19:59;640.20;2432.00
54796;DHT22;40693;43.884;20.340;2022-08-21T12:22:51;640.10;2432.00
54796;DHT22;40693;43.884;20.340;2022-08-21T12:25:19;640.00;2432.00
54796;DHT22;40693;43.884;20.340;2022-08-21T12:27:51;640.00;2432.00
54796;DHT22;40693;43.884;20.340;2022-08-21T12:32:57;615.30;2432.00
54796;DHT22;40693;43.884;20.340;2022-08-21T12:35:33;640.00;2432.00
54796;DHT22;40693;43.884;20.340;2022-08-21T12:38:18;640.00;2432.00
54796;DHT22;40693;43.884;20.340;2022-08-21T12:40:58;640.00;2432.00
54796;DHT22;40693;43.884;20.340;2022-08-21T12:45:57;640.10;2432.00
54796;DHT22;40693;43.884;20.340;2022-08-21T12:48:41;640.10;2432.00
54796;DHT22;40693;43.884;20.340;2022-08-21T12:51:15;640.20;2432.00
54796;DHT22;40693;43.884;20.340;2022-08-21T12:53:55;640.20;2432.00
54796;DHT22;40693;43.884;20.340;2022-08-21T12:56:23;640.30;2432.00
54796;DHT22;40693;43.884;20.340;2022-08-21T12:58:55;640.30;2432.00
54796;DHT22;40693;43.884;20.340;2022-08-21T13:01:28;640.40;2432.00
54796;DHT22;40693;43.884;20.340;2022-08-21T13:03:59;640.40;2432.00
54796;DHT22;40693;43.884;20.340;2022-08-21T13:06:30;640.30;2432.00
54796;DHT22;40693;43.884;20.340;2022-08-21T13:09:06;640.30;2432.00
54796;DHT22;40693;43.884;20.340;2022-08-21T13:11:33;640.30;2432.00
54796;DHT22;40693;43.884;20.340;2022-08-21T13:14:00;640.30;2432.00
54796;DHT22;40693;43.884;20.340;2022-08-21T13:16:28;640.20;2432.00
54796;DHT22;40693;43.884;20.340;2022-08-21T13:19:01;640.20;2432.00
54796;DHT22;40693;43.884;20.340;2022-08-21T13:21:33;640.20;2432.00
54796;DHT22;40693;43.884;20.340;2022-08-21T13:24:26;640.20;2432.00
54796;DHT22;40693;43.884;20.340;2022-08-21T13:26:53;640.30;2432.00
54796;DHT22;40693;43.884;20.340;2022-08-21T13:29:22;640.30;2432.00
54796;DHT22;40693;43.884;20.340;2022-08-21T13:31:54;640.20;2432.00
54796;DHT22;40693;43.884;20.340;2022-08-21T13:34:23;640.30;2432.00
54796;DHT22;40693;43.884;20.340;2022-08-21T13:36:57;640.30;2432.00
54796;DHT22;40693;43.884;20.340;2022-08-21T13:39:24;640.40;2432.00
54796;DHT22;40693;43.884;20.340;2022-08-21T13:41:54;640.40;2432.00
54796;DHT22;40693;43.884;20.340;2022-08-21T13:44:36;640.40;2432.00
54796;DHT22;40693;43.884;20.340;2022-08-21T13:47:05;640.50;2432.00
54796;DHT22;40693;43.884;20.340;2022-08-21T13:49:44;640.50;2432.00
54796;DHT22;40693;43.884;20.340;2022-08-21T13:52:24;640.50;2432.00
54796;DHT22;40693;43.884;20.340;2022-08-21T13:54:59;640.50;2432.00
54796;DHT22;40693;43.884;20.340;2022-08-21T13:59:52;640.60;2432.00
54796;DHT22;40693;43.884;20.340;2022-08-21T14:02:23;640.70;2432.00
54796;DHT22;40693;43.884;20.340;2022-08-21T14:05:16;640.80;2432.00
54796;DHT22;40693;43.884;20.340;2022-08-21T14:07:45;640.90;2432.00
54796;DHT22;40693;43.884;20.340;2022-08-21T14:10:22;665.60;2432.00
54796;DHT22;40693;43.884;20.340;2022-08-21T14:12:49;665.60;2432.00
54796;DHT22;40693;43.884;20.340;2022-08-21T14:15:17;665.70;2432.00
54796;DHT22;40693;43.884;20.340;2022-08-21T14:17:44;665.60;2432.00
54796;DHT22;40693;43.884;20.340;2022-08-21T14:20:25;665.70;2432.00
54796;DHT22;40693;43.884;20.340;2022-08-21T14:22:51;665.70;2432.00
54796;DHT22;40693;43.884;20.340;2022-08-21T14:27:54;665.70;2432.00
54796;DHT22;40693;43.884;20.340;2022-08-21T14:30:27;665.60;2432.00
54796;DHT22;40693;43.884;20.340;2022-08-21T14:32:53;665.60;2432.00
54796;DHT22;40693;43.884;20.340;2022-08-21T14:35:19;640.90;2432.00
54796;DHT22;40693;43.884;20.340;2022-08-21T14:37:47;640.90;2432.00
54796;DHT22;40693;43.884;20.340;2022-08-21T14:40:15;640.90;2432.00
54796;DHT22;40693;43.884;20.340;2022-08-21T14:42:43;640.80;2432.00
54796;DHT22;40693;43.884;20.340;2022-08-21T14:45:26;640.70;2432.00
54796;DHT22;40693;43.884;20.340;2022-08-21T14:47:52;640.70;2432.00
54796;DHT22;40693;43.884;20.340;2022-08-21T14:50:18;640.70;2432.00
54796;DHT22;40693;43.884;20.340;2022-08-21T14:52:43;640.80;2432.00
54796;DHT22;40693;43.884;20.340;2022-08-21T14:55:12;640.90;2432.00
54796;DHT22;40693;43.884;20.340;2022-08-21T14:57:41;640.90;2432.00
54796;DHT22;40693;43.884;20.340;2022-08-21T15:00:11;665.60;2432.00
54796;DHT22;40693;43.884;20.340;2022-08-21T15:02:37;665.60;2432.00
54796;DHT22;40693;43.884;20.340;2022-08-21T15:05:04;665.70;2432.00
54796;DHT22;40693;43.884;20.340;2022-08-21T15:07:30;665.60;2432.00
54796;DHT22;40693;43.884;20.340;2022-08-21T15:09:56;665.60;2432.00
54796;DHT22;40693;43.884;20.340;2022-08-21T15:12:22;665.60;2432.00
54796;DHT22;40693;43.884;20.340;2022-08-21T15:14:48;665.60;2432.00
54796;DHT22;40693;43.884;20.340;2022-08-21T15:17:14;640.90;2432.00
54796;DHT22;40693;43.884;20.340;2022-08-21T15:19:40;640.90;2432.00
54796;DHT22;40693;43.884;20.340;2022-08-21T15:22:06;640.90;2432.00
54796;DHT22;40693;43.884;20.340;2022-08-21T15:24:32;640.90;2432.00
54796;DHT22;40693;43.884;20.340;2022-08-21T15:27:00;640.80;2432.00
54796;DHT22;40693;43.884;20.340;2022-08-21T15:29:28;640.70;2432.00
54796;DHT22;40693;43.884;20.340;2022-08-21T15:31:56;640.60;2432.00
54796;DHT22;40693;43.884;20.340;2022-08-21T15:34:24;640.60;2432.00
54796;DHT22;40693;43.884;20.340;2022-08-21T15:36:50;640.60;2432.00
54796;DHT22;40693;43.884;20.340;2022-08-21T15:39:16;640.40;2432.00
54796;DHT22;40693;43.884;20.340;2022-08-21T15:41:43;640.30;2432.00
54796;DHT22;40693;43.884;20.340;2022-08-21T15:44:10;640.30;2432.00
54796;DHT22;40693;43.884;20.340;2022-08-21T15:46:38;640.30;2432.00
54796;DHT22;40693;43.884;20.340;2022-08-21T15:49:04;640.30;2432.00
54796;DHT22;40693;43.884;20.340;2022-08-21T15:51:30;640.20;2432.00
54796;DHT22;40693;43.884;20.340;2022-08-21T15:53:56;640.20;2432.00
54796;DHT22;40693;43.884;20.340;2022-08-21T15:56:28;640.20;2432.00
54796;DHT22;40693;43.884;20.340;2022-08-21T15:59:00;640.20;2432.00
54796;DHT22;40693;43.884;20.340;2022-08-21T16:01:27;640.10;2432.00
54796;DHT22;40693;43.884;20.340;2022-08-21T16:03:54;640.20;2432.00
54796;DHT22;40693;43.884;20.340;2022-08-21T16:06:20;640.10;2432.00
54796;DHT22;40693;43.884;20.340;2022-08-21T16:08:46;640.10;2432.00
54796;DHT22;40693;43.884;20.340;2022-08-21T16:11:13;640.10;2432.00